Sunday, January 25, 2015
10:15 UTC
  |  Log In   |  Register Free
Airport Search:

Teterboro Airport
(KTEB)

Airport information sponsored by:
Landmark Aviation - TEB at Teterboro (KTEB), Teterboro, NJ
FAA data valid effective January 08, 2015 - March 05, 2015 (unless otherwise noted).

 
 
 
 
 
 
 
 
 
 
 
 
 
 

Current Aviation Weather for Teterboro Airport (KTEB)

The most recent METAR observation for KTEB was updated at: 0914
METAR Summary (Translated METAR)
KTEB
250851Z 26011KT 10SM FEW065 02/M04 A2958 RMK AO2 SLP016 T00171044 51025 $
KLGA
250951Z 27014G19KT 10SM FEW037 SCT250 02/M04 A2960 RMK AO2 SLP023 T00171039 $
(9.6 nm SE from KTEB)
KCDW
250953Z AUTO 24003KT 10SM BKN070 01/M04 A2959 RMK AO2 SLP028 T00061044 TSNO $
(10.1 nm NW from KTEB)
TAF Summary (Translated TAF)
KTEB
250831Z 2509/2606 25007KT P6SM SCT035 BKN080 FM251500 30010G17KT P6SM SCT250 FM252000 32008KT P6SM FEW250 FM260300 VRB04KT P6SM BKN060
KLGA
(9.6 nm SE from KTEB)
250831Z 2509/2606 26014G20KT P6SM SCT035 SCT250 FM251500 30012G20KT P6SM FEW250 FM252000 33010KT P6SM FEW250 FM260300 02009KT P6SM BKN060
  Airport Weather Conditions for KTEB

 Current Weather at TEB
34° F
Fair
West winds at 9.2 mph
TEB NOAA Radar

Pressure: 29.60 in
Humidity: 67%
Wind: West at 9.2 MPH (8 KT)
Dew Point: 24.1°F
Visibility: 10.00 mi


Airport Weather Forecast for KTEB

Translated METAR and TAF for KTEB
Translated METAR for KTEB (1016 UTC 25 January 2015)
found at http://aviationweather.gov/adds/metars/
 
METAR text: KTEB 250951Z 25008KT 10SM CLR 01/M04 A2960 RMK AO2 SLP022 T00111044 $
Conditions at: KTEB (TETERBORO , NJ, US) observed 0951 UTC 25 January 2015
Temperature: 1.1°C (34°F)
Dewpoint: -4.4°C (24°F) [RH = 67%]
Pressure (altimeter): 29.60 inches Hg (1002.5 mb)
[Sea-level pressure: 1002.2 mb]
Winds: from the WSW (250 degrees) at 9 MPH (8 knots; 4.2 m/s)
Visibility: 10 or more miles (16+ km)
Ceiling: at least 12,000 feet AGL
Clouds: sky clear below 12,000 feet AGL
Weather:
SOME DATA ABOVE MAY BE INACCURATE!!!
"$" is an indication the sensor requires maintenance
Translated TAF for KTEB
Forecast for: KTEB (TETERBORO , NJ, US)
TAF Text: KTEB 250831Z 2509/2606 25007KT P6SM SCT035 BKN080
Forecast period: 0900 to 1500 UTC 25 January 2015
Forecast type: FROM: standard forecast or significant change
Winds: from the WSW (250 degrees) at 8 MPH (7 knots; 3.6 m/s)
Visibility: 6 or more miles (10+ km)
Ceiling: 8000 feet AGL
Clouds: scattered clouds at 3500 feet AGL
broken clouds at 8000 feet AGL
Weather: no significant weather forecast for this period
TAF Text: FM251500 30010G17KT P6SM SCT250
Forecast period: 1500 to 2000 UTC 25 January 2015
Forecast type: FROM: standard forecast or significant change
Winds: from the WNW (300 degrees) at 12 MPH (10 knots; 5.2 m/s)
gusting to 20 MPH (17 knots; 8.8 m/s)
Visibility: 6 or more miles (10+ km)
Clouds: scattered clouds at 25000 feet AGL
Weather: no significant weather forecast for this period
TAF Text: FM252000 32008KT P6SM FEW250
Forecast period: 2000 UTC 25 January 2015 to 0300 UTC 26 January 2015
Forecast type: FROM: standard forecast or significant change
Winds: from the NW (320 degrees) at 9 MPH (8 knots; 4.2 m/s)
Visibility: 6 or more miles (10+ km)
Clouds: few clouds at 25000 feet AGL
Weather: no significant weather forecast for this period
TAF Text: FM260300 VRB04KT P6SM BKN060
Forecast period: 0300 to 0600 UTC 26 January 2015
Forecast type: FROM: standard forecast or significant change
Winds: variable direction winds at 5 MPH (4 knots; 2.1 m/s)
Visibility: 6 or more miles (10+ km)
Ceiling: 6000 feet AGL
Clouds: broken clouds at 6000 feet AGL
Weather: no significant weather forecast for this period

Find All Airport Services Find A Hotel Find A Rental Car Find A Golf Course Find A Restaurant $100 Hamburger



FBO's on the Field
FBO Company Facility Photos Services Transportation Aviation Fuel Prices: Prices include tax
Catering Weather Repair Courtesy Rental Type 100LL JetA JetA+ MOGAS 8087
 
Landmark Aviation - TEB

Landmark Aviation - TEB logo
Currently rated 4.2 by 5 people
FS:
Last Updated: Jan-23
Login to update fuel prices
SS:
Contact Landmark Aviation - TEBMore FBO Information
 
Atlantic Aviation

Currently rated 4 by 1 person
FS:Independent
Last Updated: Jan-23
Login to update fuel prices
SS:
Contact Atlantic AviationMore FBO Information
 
Jet Aviation

Currently rated 4.7 by 3 people
FS:Phillips 66
Last Updated: Jan-21
Login to update fuel prices
SS:
Contact Jet AviationMore FBO Information
 
Meridian Teterboro

Currently rated 4.4 by 4 people
FS:Shell
Last Updated: Jan-23
Login to update fuel prices
SS:
Contact Meridian TeterboroMore FBO Information
 
Signature Flight Support

Currently rated 3.4 by 1 person
FS:Independent
Last Updated: Jan-23
Login to update fuel prices
SS:
Contact Signature Flight SupportMore FBO Information
 
Add another FBO Facility Photos Catering Weather Repair Courtesy Rental Type 100LL JetA JetA+ MOGAS 8087
Services Transportation Aviation Fuel Prices: Prices include tax


model-print
model-print
model-print
model-print